createdAt,value
2022-10-02T00:00:44.853Z,100793.00
2022-10-02T00:03:20.102Z,100803.72
2022-10-02T00:05:57.231Z,100792.56
2022-10-02T00:08:34.144Z,100797.47
2022-10-02T00:11:21.818Z,100788.19
2022-10-02T00:13:53.396Z,100787.50
2022-10-02T00:16:34.628Z,100793.44
2022-10-02T00:19:06.034Z,100782.78
2022-10-02T00:22:09.504Z,100778.19
2022-10-02T00:25:06.785Z,100780.34
2022-10-02T00:27:43.740Z,100781.22
2022-10-02T00:30:16.881Z,100785.44
2022-10-02T00:32:58.092Z,100777.78
2022-10-02T00:35:48.631Z,100780.91
2022-10-02T00:38:45.613Z,100786.41
2022-10-02T00:41:33.366Z,100776.44
2022-10-02T00:44:21.198Z,100777.81
2022-10-02T00:47:11.093Z,100785.00
2022-10-02T00:49:55.697Z,100783.88
2022-10-02T00:52:48.767Z,100786.00
2022-10-02T00:55:47.063Z,100778.09
2022-10-02T00:58:34.860Z,100784.19
2022-10-02T01:01:29.576Z,100783.47
2022-10-02T01:04:01.119Z,100777.13
2022-10-02T01:06:32.518Z,100783.25
2022-10-02T01:09:02.985Z,100771.63
2022-10-02T01:11:33.186Z,100778.81
2022-10-02T01:14:02.959Z,100773.53
2022-10-02T01:16:34.456Z,100772.31
2022-10-02T01:19:04.795Z,100773.91
2022-10-02T01:21:44.080Z,100776.47
2022-10-02T01:24:31.245Z,100782.44
2022-10-02T01:27:00.837Z,100777.19
2022-10-02T01:29:30.659Z,100783.03
2022-10-02T01:31:59.876Z,100772.25
2022-10-02T01:34:29.549Z,100778.66
2022-10-02T01:36:59.310Z,100792.69
2022-10-02T01:39:29.326Z,100781.81
2022-10-02T01:41:58.912Z,100779.06
2022-10-02T01:44:28.446Z,100782.28
2022-10-02T01:47:09.497Z,100786.34
2022-10-02T01:50:06.651Z,100781.84
2022-10-02T01:52:54.754Z,100783.13
2022-10-02T01:56:28.992Z,100775.97
2022-10-02T01:59:34.775Z,100773.47
2022-10-02T02:02:41.363Z,100780.09
2022-10-02T02:05:11.548Z,100782.25
2022-10-02T02:07:59.596Z,100784.59
2022-10-02T02:11:04.712Z,100786.66
2022-10-02T02:13:33.927Z,100788.34
2022-10-02T02:16:34.103Z,100786.25
2022-10-02T02:19:26.116Z,100794.84
2022-10-02T02:22:05.414Z,100793.16
2022-10-02T02:25:01.612Z,100794.66
2022-10-02T02:27:37.056Z,100790.56
2022-10-02T02:30:13.248Z,100793.13
2022-10-02T02:32:51.914Z,100792.94
2022-10-02T02:35:43.122Z,100781.72
2022-10-02T02:38:46.079Z,100793.81
2022-10-02T02:41:27.968Z,100789.31
2022-10-02T02:44:07.569Z,100790.88
2022-10-02T02:47:17.577Z,100795.88
2022-10-02T02:50:11.656Z,100794.22
2022-10-02T02:52:50.623Z,100795.53
2022-10-02T02:55:21.374Z,100799.28
2022-10-02T02:58:19.845Z,100798.19
2022-10-02T03:00:49.224Z,100796.06
2022-10-02T03:03:19.236Z,100789.50
2022-10-02T03:06:08.831Z,100800.28
2022-10-02T03:08:38.993Z,100801.78
2022-10-02T03:11:36.943Z,100803.28
2022-10-02T03:14:13.896Z,100802.78
2022-10-02T03:17:13.366Z,100798.88
2022-10-02T03:19:52.345Z,100799.78
2022-10-02T03:22:45.100Z,100802.56
2022-10-02T03:25:30.655Z,100801.22
2022-10-02T03:28:12.827Z,100794.81
2022-10-02T03:30:43.719Z,100790.78
2022-10-02T03:33:16.248Z,100796.75
2022-10-02T03:35:46.427Z,100793.47
2022-10-02T03:38:16.517Z,100800.41
2022-10-02T03:40:45.716Z,100798.25
2022-10-02T03:43:25.550Z,100800.91
2022-10-02T03:45:54.718Z,100797.09
2022-10-02T03:48:24.550Z,100800.25
2022-10-02T03:50:53.831Z,100796.88
2022-10-02T03:53:26.807Z,100798.34
2022-10-02T03:56:04.167Z,100798.88
2022-10-02T03:58:34.796Z,100801.53
2022-10-02T04:01:20.863Z,100802.63
2022-10-02T04:04:22.701Z,100801.06
2022-10-02T04:07:04.015Z,100803.59
2022-10-02T04:09:43.924Z,100803.81
2022-10-02T04:12:39.892Z,100800.75
2022-10-02T04:15:34.883Z,100800.66
2022-10-02T04:18:23.145Z,100794.53
2022-10-02T04:21:04.648Z,100794.97
2022-10-02T04:23:56.757Z,100788.66
2022-10-02T04:26:36.829Z,100788.69
2022-10-02T04:29:27.089Z,100789.91
2022-10-02T04:32:14.443Z,100788.34
2022-10-02T04:34:44.072Z,100794.13
2022-10-02T04:37:32.774Z,100793.44
2022-10-02T04:40:17.369Z,100794.31
2022-10-02T04:43:01.875Z,100792.03
2022-10-02T04:45:38.240Z,100792.91
2022-10-02T04:48:10.901Z,100794.66
2022-10-02T04:51:01.059Z,100793.78
2022-10-02T04:53:48.045Z,100790.78
2022-10-02T04:56:16.818Z,100794.81
2022-10-02T04:58:48.662Z,100795.00
2022-10-02T05:01:36.479Z,100800.84
2022-10-02T05:04:21.539Z,100797.06
2022-10-02T05:07:24.214Z,100792.44
2022-10-02T05:10:29.289Z,100793.31
2022-10-02T05:13:35.602Z,100798.16
2022-10-02T05:16:34.645Z,100796.66
2022-10-02T05:19:21.714Z,100795.22
2022-10-02T05:22:15.780Z,100796.88
2022-10-02T05:25:03.250Z,100796.94
2022-10-02T05:27:53.158Z,100791.13
2022-10-02T05:30:22.634Z,100799.53
2022-10-02T05:33:18.972Z,100790.00
2022-10-02T05:36:00.939Z,100789.25
2022-10-02T05:38:44.996Z,100788.63
2022-10-02T05:41:27.376Z,100785.53
2022-10-02T05:44:06.645Z,100785.84
2022-10-02T05:46:54.319Z,100791.88
2022-10-02T05:49:38.100Z,100788.41
2022-10-02T05:52:14.878Z,100778.84
2022-10-02T05:55:14.717Z,100784.88
2022-10-02T05:57:48.319Z,100786.88
2022-10-02T06:00:47.348Z,100785.59
2022-10-02T06:03:40.925Z,100794.44
2022-10-02T06:06:48.609Z,100792.50
2022-10-02T06:09:36.574Z,100796.59
2022-10-02T06:12:32.199Z,100802.25
2022-10-02T06:15:09.221Z,100801.53
2022-10-02T06:17:43.723Z,100798.81
2022-10-02T06:20:25.349Z,100803.34
2022-10-02T06:23:06.925Z,100797.88
2022-10-02T06:25:47.212Z,100797.13
2022-10-02T06:28:31.707Z,100794.81
2022-10-02T06:31:10.678Z,100792.25
2022-10-02T06:33:40.311Z,100792.63
2022-10-02T06:36:22.266Z,100787.22
2022-10-02T06:39:32.195Z,100789.69
2022-10-02T06:42:24.533Z,100789.63
2022-10-02T06:45:06.977Z,100785.69
2022-10-02T06:47:39.228Z,100786.53
2022-10-02T06:50:33.104Z,100797.41
2022-10-02T06:53:25.735Z,100798.63
2022-10-02T06:56:21.148Z,100797.13
2022-10-02T06:58:59.629Z,100793.91
2022-10-02T07:01:57.397Z,100800.75
2022-10-02T07:04:49.963Z,100804.41
2022-10-02T07:07:28.663Z,100797.69
2022-10-02T07:10:23.701Z,100799.47
2022-10-02T07:13:13.295Z,100798.38
2022-10-02T07:16:10.189Z,100803.22
2022-10-02T07:19:15.394Z,100808.06
2022-10-02T07:21:56.237Z,100806.47
2022-10-02T07:24:45.618Z,100804.94
2022-10-02T07:27:18.907Z,100803.44
2022-10-02T07:30:07.420Z,100801.06
2022-10-02T07:33:19.308Z,100807.50
2022-10-02T07:36:06.716Z,100800.34
2022-10-02T07:39:12.250Z,100793.97
2022-10-02T07:41:59.488Z,100798.03
2022-10-02T07:44:51.786Z,100796.47
2022-10-02T07:47:50.066Z,100789.72
2022-10-02T07:50:30.964Z,100790.88
2022-10-02T07:53:07.773Z,100786.22
2022-10-02T07:55:42.504Z,100788.66
2022-10-02T07:58:17.137Z,100788.66
2022-10-02T08:01:03.893Z,100788.69
2022-10-02T08:04:05.032Z,100786.28
2022-10-02T08:06:35.408Z,100782.41
2022-10-02T08:09:10.013Z,100782.44
2022-10-02T08:11:49.650Z,100785.28
2022-10-02T08:14:40.703Z,100779.31
2022-10-02T08:17:32.566Z,100779.34
2022-10-02T08:20:16.894Z,100772.59
2022-10-02T08:22:53.472Z,100778.59
2022-10-02T08:25:26.105Z,100765.50
2022-10-02T08:27:55.219Z,100768.28
2022-10-02T08:30:24.356Z,100770.28
2022-10-02T08:32:55.213Z,100766.69
2022-10-02T08:35:46.915Z,100773.56
2022-10-02T08:38:41.099Z,100774.78
2022-10-02T08:41:57.169Z,100775.63
2022-10-02T08:44:50.927Z,100770.47
2022-10-02T08:47:28.476Z,100767.69
2022-10-02T08:50:06.293Z,100760.50
2022-10-02T08:52:57.478Z,100768.16
2022-10-02T08:56:06.472Z,100764.56
2022-10-02T08:59:23.191Z,100763.84
2022-10-02T09:02:00.073Z,100767.03
2022-10-02T09:04:36.850Z,100758.31
2022-10-02T09:07:48.269Z,100762.28
2022-10-02T09:10:54.275Z,100761.47
2022-10-02T09:13:45.578Z,100763.13
2022-10-02T09:16:44.186Z,100763.94
2022-10-02T09:19:25.318Z,100759.56
2022-10-02T09:22:00.271Z,100760.84
2022-10-02T09:25:06.828Z,100755.69
2022-10-02T09:28:22.328Z,100756.09
2022-10-02T09:30:51.719Z,100747.38
2022-10-02T09:33:46.643Z,100752.22
2022-10-02T09:36:35.925Z,100761.75
2022-10-02T09:39:27.465Z,100760.94
2022-10-02T09:42:30.742Z,100757.84
2022-10-02T09:45:29.465Z,100760.19
2022-10-02T09:48:20.053Z,100762.59
2022-10-02T09:51:15.027Z,100761.16
2022-10-02T09:54:14.401Z,100756.50
2022-10-02T09:57:25.589Z,100751.56
2022-10-02T10:00:21.889Z,100761.13
2022-10-02T10:03:15.531Z,100762.75
2022-10-02T10:05:57.567Z,100752.00
2022-10-02T10:08:59.527Z,100759.59
2022-10-02T10:11:31.974Z,100758.03
2022-10-02T10:14:10.000Z,100754.47
2022-10-02T10:17:17.072Z,100756.47
2022-10-02T10:20:00.098Z,100750.34
2022-10-02T10:22:41.174Z,100738.06
2022-10-02T10:25:45.267Z,100745.06
2022-10-02T10:28:51.004Z,100744.41
2022-10-02T10:31:38.475Z,100731.19
2022-10-02T10:34:40.762Z,100740.25
2022-10-02T10:37:58.852Z,100743.03
2022-10-02T10:40:58.902Z,100747.03
2022-10-02T10:44:01.724Z,100751.84
2022-10-02T10:47:00.726Z,100758.59
2022-10-02T10:49:39.490Z,100746.28
2022-10-02T10:52:17.498Z,100748.72
2022-10-02T10:55:08.116Z,100745.13
2022-10-02T10:57:58.248Z,100747.94
2022-10-02T11:00:33.681Z,100741.97
2022-10-02T11:03:59.168Z,100741.16
2022-10-02T11:06:57.149Z,100747.97
2022-10-02T11:10:08.598Z,100742.38
2022-10-02T11:13:10.450Z,100746.44
2022-10-02T11:16:21.240Z,100747.59
2022-10-02T11:19:11.866Z,100754.38
2022-10-02T11:22:14.771Z,100749.59
2022-10-02T11:25:22.707Z,100752.75
2022-10-02T11:28:01.186Z,100759.50
2022-10-02T11:31:07.491Z,100757.53
2022-10-02T11:33:51.355Z,100765.53
2022-10-02T11:36:46.438Z,100768.72
2022-10-02T11:40:06.522Z,100767.91
2022-10-02T11:43:25.718Z,100771.13
2022-10-02T11:46:10.065Z,100769.13
2022-10-02T11:49:20.662Z,100768.72
2022-10-02T11:52:09.671Z,100764.41
2022-10-02T11:54:57.280Z,100760.03
2022-10-02T11:57:42.301Z,100771.97
2022-10-02T12:00:46.254Z,100760.03
2022-10-02T12:03:24.243Z,100763.63
2022-10-02T12:05:59.271Z,100764.84
2022-10-02T12:08:55.732Z,100774.00
2022-10-02T12:11:35.289Z,100769.59
2022-10-02T12:14:43.658Z,100771.22
2022-10-02T12:17:25.960Z,100770.00
2022-10-02T12:20:50.448Z,100771.22
2022-10-02T12:23:47.300Z,100776.78
2022-10-02T12:27:04.555Z,100771.22
2022-10-02T12:29:41.373Z,100775.97
2022-10-02T12:32:16.359Z,100772.81
2022-10-02T12:34:49.386Z,100779.97
2022-10-02T12:37:34.061Z,100783.16
2022-10-02T12:40:22.900Z,100792.69
2022-10-02T12:43:01.174Z,100784.75
2022-10-02T12:45:36.495Z,100788.75
2022-10-02T12:48:34.965Z,100787.13
2022-10-02T12:51:39.806Z,100783.97
2022-10-02T12:54:27.511Z,100784.75
2022-10-02T12:57:42.803Z,100787.16
2022-10-02T13:00:19.242Z,100787.16
2022-10-02T13:03:06.835Z,100788.75
2022-10-02T13:06:11.747Z,100792.72
2022-10-02T13:09:06.143Z,100790.75
2022-10-02T13:11:59.536Z,100800.69
2022-10-02T13:15:18.605Z,100799.09
2022-10-02T13:18:15.394Z,100793.94
2022-10-02T13:21:06.998Z,100791.97
2022-10-02T13:24:06.878Z,100795.16
2022-10-02T13:26:35.947Z,100800.69
2022-10-02T13:29:12.238Z,100790.75
2022-10-02T13:32:08.958Z,100787.97
2022-10-02T13:35:00.113Z,100796.75
2022-10-02T13:37:56.084Z,100796.72
2022-10-02T13:40:45.529Z,100807.06
2022-10-02T13:43:45.857Z,100800.31
2022-10-02T13:46:36.656Z,100807.88
2022-10-02T13:49:30.019Z,100811.84
2022-10-02T13:52:09.729Z,100808.66
2022-10-02T13:54:58.605Z,100819.00
2022-10-02T13:57:49.019Z,100818.19
2022-10-02T14:00:40.691Z,100818.22
2022-10-02T14:03:42.664Z,100816.63
2022-10-02T14:06:26.505Z,100814.22
2022-10-02T14:09:32.833Z,100820.19
2022-10-02T14:12:26.787Z,100812.63
2022-10-02T14:15:21.221Z,100810.63
2022-10-02T14:18:06.399Z,100807.84
2022-10-02T14:20:46.713Z,100811.03
2022-10-02T14:24:06.409Z,100813.00
2022-10-02T14:26:35.814Z,100804.69
2022-10-02T14:29:18.399Z,100804.28
2022-10-02T14:32:03.536Z,100810.22
2022-10-02T14:34:45.042Z,100811.44
2022-10-02T14:37:44.364Z,100799.91
2022-10-02T14:40:19.347Z,100804.66
2022-10-02T14:43:15.622Z,100811.84
2022-10-02T14:46:11.925Z,100814.22
2022-10-02T14:49:07.117Z,100823.75
2022-10-02T14:51:52.756Z,100825.34
2022-10-02T14:54:30.473Z,100834.06
2022-10-02T14:57:12.809Z,100828.53
2022-10-02T15:00:12.380Z,100843.63
2022-10-02T15:02:51.529Z,100848.00
2022-10-02T15:05:38.876Z,100843.19
2022-10-02T15:08:31.003Z,100848.38
2022-10-02T15:11:02.308Z,100854.31
2022-10-02T15:13:44.406Z,100850.34
2022-10-02T15:16:53.350Z,100854.72
2022-10-02T15:19:32.255Z,100861.84
2022-10-02T15:22:15.581Z,100850.34
2022-10-02T15:24:53.698Z,100846.00
2022-10-02T15:27:55.508Z,100858.69
2022-10-02T15:30:27.660Z,100853.88
2022-10-02T15:33:25.181Z,100838.81
2022-10-02T15:36:13.060Z,100847.97
2022-10-02T15:39:14.027Z,100853.88
2022-10-02T15:42:03.990Z,100845.03
2022-10-02T15:44:46.882Z,100837.22
2022-10-02T15:47:28.623Z,100845.22
2022-10-02T15:50:30.208Z,100849.97
2022-10-02T15:53:37.515Z,100855.53
2022-10-02T15:56:32.698Z,100850.78
2022-10-02T15:59:40.469Z,100851.59
2022-10-02T16:02:55.139Z,100847.59
2022-10-02T16:05:44.960Z,100848.41
2022-10-02T16:08:35.847Z,100840.06
2022-10-02T16:11:35.695Z,100842.06
2022-10-02T16:14:15.048Z,100842.06
2022-10-02T16:17:17.794Z,100840.06
2022-10-02T16:20:03.516Z,100836.47
2022-10-02T16:22:50.859Z,100834.09
2022-10-02T16:25:32.524Z,100838.06
2022-10-02T16:28:40.358Z,100831.69
2022-10-02T16:31:24.071Z,100829.25
2022-10-02T16:34:21.237Z,100828.41
2022-10-02T16:36:59.167Z,100844.28
2022-10-02T16:39:52.856Z,100845.41
2022-10-02T16:42:58.769Z,100854.88
2022-10-02T16:45:29.295Z,100856.03
2022-10-02T16:48:15.364Z,100858.41
2022-10-02T16:51:13.609Z,100861.56
2022-10-02T16:53:52.130Z,100863.09
2022-10-02T16:56:58.312Z,100859.56
2022-10-02T16:59:53.396Z,100859.09
2022-10-02T17:02:45.860Z,100859.78
2022-10-02T17:05:19.364Z,100868.84
2022-10-02T17:08:10.324Z,100875.56
2022-10-02T17:11:03.080Z,100890.19
2022-10-02T17:13:44.107Z,100889.66
2022-10-02T17:16:21.715Z,100899.16
2022-10-02T17:19:14.815Z,100891.03
2022-10-02T17:22:03.546Z,100902.88
2022-10-02T17:24:35.412Z,100910.34
2022-10-02T17:27:15.747Z,100909.44
2022-10-02T17:30:00.057Z,100916.03
2022-10-02T17:32:39.208Z,100927.97
2022-10-02T17:35:40.530Z,100931.91
2022-10-02T17:38:41.385Z,100950.09
2022-10-02T17:41:29.666Z,100942.75
2022-10-02T17:44:10.185Z,100951.22
2022-10-02T17:46:57.730Z,100970.00
2022-10-02T17:49:42.376Z,100970.22
2022-10-02T17:52:57.026Z,100973.06
2022-10-02T17:56:18.748Z,100973.94
2022-10-02T17:59:14.321Z,100977.72
2022-10-02T18:02:07.255Z,100977.22
2022-10-02T18:04:45.847Z,100974.25
2022-10-02T18:07:44.201Z,100982.00
2022-10-02T18:10:42.975Z,100976.75
2022-10-02T18:13:47.140Z,100987.53
2022-10-02T18:16:29.151Z,100982.72
2022-10-02T18:19:20.813Z,100982.38
2022-10-02T18:22:03.082Z,100978.88
2022-10-02T18:25:15.606Z,100979.38
2022-10-02T18:28:06.973Z,100969.19
2022-10-02T18:30:57.816Z,100975.75
2022-10-02T18:33:55.120Z,100975.19
2022-10-02T18:37:17.990Z,100979.72
2022-10-02T18:40:11.160Z,100973.75
2022-10-02T18:42:51.485Z,100972.44
2022-10-02T18:45:58.021Z,100979.59
2022-10-02T18:48:56.445Z,100980.25
2022-10-02T18:51:49.722Z,100979.25
2022-10-02T18:54:51.681Z,100979.78
2022-10-02T18:57:56.925Z,100974.91
2022-10-02T19:00:49.714Z,100968.69
2022-10-02T19:21:27.962Z,100953.81
2022-10-02T19:24:31.145Z,100950.84
2022-10-02T19:27:46.231Z,100951.97
2022-10-02T19:30:47.486Z,100964.25
2022-10-02T19:33:25.547Z,100950.84
2022-10-02T19:35:56.745Z,100953.78
2022-10-02T19:38:31.960Z,100950.88
2022-10-02T19:41:03.069Z,100947.09
2022-10-02T19:43:35.458Z,100952.44
2022-10-02T19:46:13.395Z,100951.63
2022-10-02T19:48:43.452Z,100950.41
2022-10-02T19:51:22.374Z,100958.25
2022-10-02T19:53:54.498Z,100945.28
2022-10-02T19:56:40.653Z,100950.19
2022-10-02T19:59:20.647Z,100950.44
2022-10-02T20:01:59.486Z,100947.09
2022-10-02T20:04:32.953Z,100938.03
2022-10-02T20:07:02.956Z,100936.38
2022-10-02T20:09:55.466Z,100937.00
2022-10-02T20:12:33.263Z,100935.44
2022-10-02T20:15:40.827Z,100927.22
2022-10-02T20:18:12.309Z,100929.03
2022-10-02T20:20:45.553Z,100924.59
2022-10-02T20:23:23.136Z,100923.94
2022-10-02T20:25:59.469Z,100926.75
2022-10-02T20:28:48.326Z,100922.19
2022-10-02T20:31:40.477Z,100925.84
2022-10-02T20:34:36.090Z,100920.25
2022-10-02T20:37:12.968Z,100916.34
2022-10-02T20:39:51.353Z,100922.63
2022-10-02T20:42:54.233Z,100914.31
2022-10-02T20:45:33.988Z,100907.00
2022-10-02T20:49:07.087Z,100912.69
2022-10-02T20:51:58.139Z,100909.22
2022-10-02T20:54:37.396Z,100902.56
2022-10-02T20:58:07.057Z,100906.31
2022-10-02T21:00:50.119Z,100902.53
2022-10-02T21:03:31.346Z,100892.91
2022-10-02T21:06:37.979Z,100895.59
2022-10-02T21:09:41.805Z,100898.97
2022-10-02T21:12:36.349Z,100888.84
2022-10-02T21:15:29.883Z,100895.47
2022-10-02T21:18:26.488Z,100888.56
2022-10-02T21:21:17.893Z,100885.31
2022-10-02T21:24:21.950Z,100879.94
2022-10-02T21:27:16.514Z,100880.25
2022-10-02T21:30:11.137Z,100875.13
2022-10-02T21:32:56.877Z,100872.00
2022-10-02T21:35:35.924Z,100870.63
2022-10-02T21:38:28.990Z,100869.53
2022-10-02T21:41:08.034Z,100872.59
2022-10-02T21:44:05.083Z,100868.94
2022-10-02T21:46:41.100Z,100864.34
2022-10-02T21:49:25.463Z,100861.50
2022-10-02T21:52:22.003Z,100862.59
2022-10-02T21:55:09.238Z,100862.56
2022-10-02T21:57:50.774Z,100867.06
2022-10-02T22:00:32.109Z,100852.63
2022-10-02T22:03:07.142Z,100853.72
2022-10-02T22:05:54.535Z,100849.06
2022-10-02T22:09:03.494Z,100845.84
2022-10-02T22:11:50.436Z,100841.97
2022-10-02T22:14:43.875Z,100841.97
2022-10-02T22:17:27.052Z,100841.81
2022-10-02T22:20:33.092Z,100844.69
2022-10-02T22:23:26.695Z,100840.69
2022-10-02T22:26:13.790Z,100842.78
2022-10-02T22:29:10.318Z,100844.13
2022-10-02T22:32:20.619Z,100839.31
2022-10-02T22:35:20.389Z,100843.69
2022-10-02T22:38:14.791Z,100842.84
2022-10-02T22:40:53.279Z,100848.75
2022-10-02T22:43:59.631Z,100839.06
2022-10-02T22:46:39.028Z,100840.22
2022-10-02T22:49:26.211Z,100843.91
2022-10-02T22:52:12.163Z,100836.97
2022-10-02T22:54:41.265Z,100840.28
2022-10-02T22:57:21.589Z,100845.13
2022-10-02T23:00:03.671Z,100843.22
2022-10-02T23:02:34.295Z,100843.09
2022-10-02T23:05:20.053Z,100842.97
2022-10-02T23:07:56.593Z,100843.81
2022-10-02T23:10:47.619Z,100839.34
2022-10-02T23:13:25.247Z,100834.88
2022-10-02T23:16:23.786Z,100839.69
2022-10-02T23:19:35.035Z,100840.47
2022-10-02T23:22:10.082Z,100844.34
2022-10-02T23:25:01.261Z,100845.75
2022-10-02T23:27:58.353Z,100842.06
2022-10-02T23:30:31.024Z,100853.34
2022-10-02T23:33:27.029Z,100852.44
2022-10-02T23:36:46.446Z,100849.94
2022-10-02T23:39:23.813Z,100845.31
2022-10-02T23:41:58.581Z,100841.56
2022-10-02T23:44:33.041Z,100842.75
2022-10-02T23:47:30.062Z,100843.44
2022-10-02T23:50:01.881Z,100838.28
2022-10-02T23:52:37.123Z,100845.22
2022-10-02T23:55:24.264Z,100844.44
2022-10-02T23:58:21.067Z,100839.34
